Skip to Main Content

Video Notice: If you see just a black screen when trying to view Live Traffic cameras, please click inside the window to get video to play. An update to certain browsers is not allowing the video to auto-play when the window opens. 

SEARCH:
Location Air RH Dwp Precip Type Wind Speed Wind Gust Direction Pavement Temperature Date/Time
Hatem Bridge US 40 E/B 61 97 60 None 4 mph 4 mph N 60 - 60 9/24/2018 3:49:00 AM
I-270 at I-370 59 100 59 None Calm Calm NE 60 - 63 9/24/2018 3:45:00 AM
I-270 at MD-109 60 100 60 None Calm Calm NW 60 - 61 9/24/2018 3:45:00 AM
I-495 at American Legion Bridge 61 100 61 None Calm 6 mph N 63 - 63 9/24/2018 3:45:00 AM
I-68 at Savage Mt 53 100 53 None 7 mph 11 mph E 56 - 56 9/24/2018 3:45:00 AM
I-68 at Sideling Hill 57 100 57 None Calm 7 mph NE 61 - 61 9/24/2018 3:45:00 AM
I-68 at US 219 53 100 53 None 12 mph 23 mph SE 54 - 56 9/24/2018 3:45:00 AM
I-68 at WV Line 56 93 54 None 8 mph 14 mph E 58 - 62 9/24/2018 3:45:00 AM
I-695 at I-83 60 98 59 None 5 mph 9 mph NE 60 - 62 9/24/2018 3:45:00 AM
I-695 on FSK Bridge 61 100 61 Rain 14 mph 17 mph S 62 - 62 9/24/2018 3:49:00 AM
I-70 at Fred-Wash Co. 58 100 58 None Calm 4 mph N 58 - 60 9/24/2018 3:45:00 AM
I-70 at I-695 60 100 60 None 5 mph 11 mph E 60 - 62 9/24/2018 3:45:00 AM
I-70 at I-81 59 100 59 None 4 mph 8 mph N 62 - 62 9/24/2018 3:45:00 AM
I-70 at MD-27 58 100 58 None Calm 9 mph NE 58 - 60 9/24/2018 3:45:00 AM
I-70 at MD-32 58 100 58 None Calm 4 mph NE 61 - 62 9/24/2018 3:45:00 AM
I-83 at MD-137 59 100 59 None 4 mph 7 mph N 61 - 61 9/24/2018 3:45:00 AM
I-95 at I-695 NE 61 97 60 None Calm 6 mph NE 61 - 63 9/24/2018 3:49:00 AM
I-95 at Patuxent River 61 100 61 None 5 mph 10 mph NE 61 - 62 9/24/2018 3:45:00 AM
I-95 at Tydings Bridge 60 98 60 None 6 mph 12 mph E 61 - 62 9/24/2018 3:45:00 AM
I-95/495 at I-295 65 90 62 None Calm 5 mph NE 62 - 63 9/24/2018 3:45:00 AM
I-97 at MD-100 61 99 61 None 4 mph 8 mph NE 61 - 63 9/24/2018 3:45:00 AM
I-97 at MD-32 61 97 61 None Calm 8 mph NE 62 - 64 9/24/2018 3:45:00 AM
IS 70 W of I-270 - - - No Data Available - - No Data Available 62 - 62 9/24/2018 3:45:00 AM
MD 136 @ MD 646 59 100 59 No Data Available Calm 7 mph E 63 - 63 9/24/2018 3:45:00 AM
MD 20 at MD 21 61 97 60 None Calm 7 mph NE 63 - 63 9/24/2018 3:45:00 AM
MD 23 at Meadowtree Road 58 100 58 No Data Available Calm 7 mph W 61 - 61 9/24/2018 3:45:00 AM
MD 231 at Patuxent River 65 100 65 None 11 mph 16 mph NE 64 - 66 9/24/2018 3:45:00 AM
MD 24 at Jarrettsville Road 59 100 59 No Data Available Calm 4 mph SE 63 - 63 9/24/2018 3:45:00 AM
MD 260 at Cox Rd 63 98 63 Rain Calm 8 mph NE 67 - 67 9/24/2018 3:45:00 AM
MD-135 at Salt Dome 52 100 52 None 7 mph 14 mph SE 56 - 56 9/24/2018 3:45:00 AM
MD-140 at MD-97 59 100 59 None Calm 7 mph E 59 - 60 9/24/2018 3:45:00 AM
MD-200 EB at Bonifant Rd - - - No Data Available - - No Data Available -
MD-200 WB at Muncaster Mill Rd 59 97 58 None Calm 5 mph N 61 - 64 9/24/2018 3:49:00 AM
MD-213 at Sassafras River 63 100 63 None Calm 4 mph NE 64 - 64 9/24/2018 3:45:00 AM
MD-24 at Rock St Park 60 100 60 None Calm Calm SW 62 - 62 9/24/2018 3:45:00 AM
MD-30 at PA Line 58 100 58 None 4 mph 9 mph NE 60 - 60 9/24/2018 3:45:00 AM
MD-33 at Knapps Narrows Drawbridge 63 96 62 Rain 9 mph 17 mph NE 66 - 66 9/24/2018 3:45:00 AM
MD-344 at MD-224 62 100 62 None Calm 7 mph N 66 - 66 9/24/2018 3:45:00 AM
MD-4 at Patuxent River 65 100 65 None 7 mph 15 mph NE 63 - 66 9/24/2018 3:49:00 AM
MD-404 at Choptank River 62 96 61 Rain 6 mph 14 mph NE 63 - 65 9/24/2018 3:45:00 AM
MD-43 at MD-150 61 100 61 None 6 mph 10 mph NE 61 - 63 9/24/2018 3:45:00 AM
MD-51 at Oldtown Salt Dome 59 100 59 None Calm Calm E 63 - 63 9/24/2018 3:45:00 AM
MD-64 at MD-418 58 98 58 None 5 mph 12 mph NE 61 - 62 9/24/2018 3:45:00 AM
US 301 at MD 305 62 96 61 Rain 5 mph 11 mph NE 64 - 65 9/24/2018 3:45:00 AM
US-1 at Baltimore / Harford Co. Line 60 98 60 None Calm Calm SW 61 - 63 9/24/2018 3:45:00 AM
US-1 at Conowingo Dam 61 100 61 None Calm Calm NW 64 - 64 9/24/2018 3:45:00 AM
US-13 at US-113 66 96 65 None 8 mph 15 mph NE 70 - 70 9/24/2018 3:45:00 AM
US-13 at US-50 64 93 62 None 6 mph 15 mph E 65 - 65 9/24/2018 3:45:00 AM
US-15 at MD-140 58 99 58 None Calm Calm N 59 - 62 9/24/2018 3:45:00 AM
US-301 at MD-5 62 100 62 None 5 mph 9 mph N 63 - 65 9/24/2018 3:45:00 AM
US-301 at Potomac 68 90 65 None Calm 7 mph N 63 - 63 9/24/2018 3:49:00 AM
US-340 at MD-180 58 100 58 None Calm 5 mph N 60 - 62 9/24/2018 3:45:00 AM
US-50 at Choptank 64 100 64 None 4 mph 14 mph N 64 - 65 9/24/2018 3:45:00 AM
US-50 at I-95 62 100 62 None Calm 6 mph NE 61 - 64 9/24/2018 3:45:00 AM
US-50 at MD-2 62 100 62 None 4 mph 11 mph N 63 - 64 9/24/2018 3:45:00 AM
US-50 at MD-331 65 93 63 None 7 mph 21 mph E 64 - 66 9/24/2018 3:45:00 AM
US-50 at OC Drawbridge 66 100 66 None 15 mph 27 mph NE 68 - 68 9/24/2018 3:45:00 AM
US-50 at Table Rock Rd 53 100 53 None 13 mph 21 mph E 54 - 54 9/24/2018 3:45:00 AM
US-50 Kent Narrow Bridge 64 100 64 Rain 8 mph 14 mph NE 63 - 65 9/24/2018 3:45:00 AM
WPL Pier 31 62 98 62 None 24 mph 25 mph NE 65 - 65 9/24/2018 3:48:00 AM
Location Air RH Dwp Precip Type Wind Speed Wind Gust Direction Pavement Temperature Date/Time